Time;durP1;ratioP1;P1;durP2;ratioP2;P2;SDS_P1;SDS_P2;PMS_P1;PMS_P2;Temp;Humidity;BMP_temperature;BMP_pressure;BME280_temperature;BME280_humidity;BME280_pressure;Samples;Min_cycle;Max_cycle;Signal;HPM_P1;HPM_P2
2022/12/23 00:00:26;;;;;;;;;;;8.00;99.90;;;;;;5103590;28;20346;-41
2022/12/23 00:02:52;;;;;;;;;;;8.00;99.90;;;;;;5094569;28;19911;-42
2022/12/23 00:05:17;;;;;;;;;;;7.90;99.90;;;;;;5093937;28;19924;-41
2022/12/23 00:07:43;;;;;;;;;;;8.00;99.90;;;;;;5094473;28;20275;-42
2022/12/23 00:10:09;;;;;;;;;;;8.00;99.90;;;;;;5094684;28;19916;-40
2022/12/23 00:15:19;;;;;;;;;;;8.00;99.90;;;;;;5095207;28;19919;-40
2022/12/23 00:17:44;;;;;;;;;;;8.00;99.90;;;;;;5111206;28;19912;-40
2022/12/23 00:20:11;;;;;;;;;;;8.00;99.90;;;;;;5113885;28;20282;-41
2022/12/23 00:25:39;;;;;;;;;;;8.00;99.90;;;;;;5113768;28;20286;-41
2022/12/23 00:28:10;;;;;;;;;;;8.00;99.90;;;;;;5114777;28;19914;-42
2022/12/23 00:30:52;;;;;;;;;;;7.90;99.90;;;;;;5112328;28;19927;-41
2022/12/23 00:33:19;;;;;;;;;;;8.00;99.90;;;;;;5113588;28;19916;-42
2022/12/23 00:35:45;;;;;;;;;;;7.90;99.90;;;;;;5113885;28;19912;-41
2022/12/23 00:38:10;;;;;;;;;;;7.90;99.90;;;;;;5112762;28;19934;-41
2022/12/23 00:43:20;;;;;;;;;;;7.90;99.90;;;;;;5099156;28;19919;-41
2022/12/23 00:45:46;;;;;;;;;;;8.00;99.90;;;;;;5093796;28;19920;-42
2022/12/23 00:50:56;;;;;;;;;;;8.00;99.90;;;;;;5094100;28;19966;-42
2022/12/23 00:53:22;;;;;;;;;;;7.90;99.90;;;;;;5092910;28;20309;-42
2022/12/23 00:55:47;;;;;;;;;;;7.90;99.90;;;;;;5093743;28;19916;-41
2022/12/23 00:58:16;;;;;;;;;;;8.00;99.90;;;;;;5093691;28;19915;-40
2022/12/23 01:06:11;;;;;;;;;;;7.90;99.90;;;;;;5093965;28;19923;-41
2022/12/23 01:08:36;;;;;;;;;;;8.00;99.90;;;;;;5092441;28;20357;-41
2022/12/23 01:11:03;;;;;;;;;;;7.90;99.90;;;;;;5093548;28;19908;-42
2022/12/23 01:13:28;;;;;;;;;;;8.00;99.90;;;;;;5093435;28;20414;-40
2022/12/23 01:16:01;;;;;;;;;;;7.90;99.90;;;;;;5092529;28;20007;-40
2022/12/23 01:18:27;;;;;;;;;;;7.90;99.90;;;;;;5103177;28;19912;-42
2022/12/23 01:20:52;;;;;;;;;;;7.90;99.90;;;;;;5113172;28;19912;-41
2022/12/23 01:23:17;;;;;;;;;;;7.90;99.90;;;;;;5112574;28;19962;-41
2022/12/23 01:25:43;;;;;;;;;;;8.00;99.90;;;;;;5094221;28;20275;-40
2022/12/23 01:28:08;;;;;;;;;;;8.00;99.90;;;;;;5093441;28;19961;-40
2022/12/23 01:30:35;;;;;;;;;;;8.00;99.90;;;;;;5093168;28;20256;-40
2022/12/23 01:33:01;;;;;;;;;;;8.00;99.90;;;;;;5093202;28;20382;-40
2022/12/23 01:35:26;;;;;;;;;;;8.00;99.90;;;;;;5092258;28;20007;-41
2022/12/23 01:37:52;;;;;;;;;;;7.90;99.90;;;;;;5112661;28;20255;-43
2022/12/23 01:40:17;;;;;;;;;;;8.00;99.90;;;;;;5106570;28;19922;-40
2022/12/23 01:42:43;;;;;;;;;;;8.00;99.90;;;;;;5101590;28;20278;-41
2022/12/23 01:45:14;;;;;;;;;;;8.00;99.90;;;;;;5099459;28;19920;-39
2022/12/23 01:47:39;;;;;;;;;;;8.00;99.90;;;;;;5093461;28;19939;-40
2022/12/23 01:50:25;;;;;;;;;;;8.00;99.90;;;;;;5112251;28;20444;-40
2022/12/23 01:52:50;;;;;;;;;;;7.90;99.90;;;;;;5082954;28;20359;-41
2022/12/23 01:55:18;;;;;;;;;;;8.00;99.90;;;;;;5112911;28;19912;-41
2022/12/23 01:57:43;;;;;;;;;;;8.00;99.90;;;;;;5112288;28;19998;-41
2022/12/23 02:05:38;;;;;;;;;;;7.90;99.90;;;;;;5092115;28;20002;-39
2022/12/23 02:10:58;;;;;;;;;;;8.00;99.90;;;;;;5091797;28;19981;-39
2022/12/23 02:13:31;;;;;;;;;;;7.90;99.90;;;;;;5093040;28;19947;-40
2022/12/23 02:16:16;;;;;;;;;;;8.00;99.90;;;;;;5097052;28;19915;-40
2022/12/23 02:18:50;;;;;;;;;;;7.90;99.90;;;;;;5104754;28;19912;-42
2022/12/23 02:21:34;;;;;;;;;;;7.90;99.90;;;;;;5096108;28;19912;-40
2022/12/23 02:24:15;;;;;;;;;;;8.00;99.90;;;;;;5096597;28;20453;-43
2022/12/23 02:26:40;;;;;;;;;;;7.90;99.90;;;;;;5110799;28;19920;-41
2022/12/23 02:29:24;;;;;;;;;;;7.90;99.90;;;;;;5115315;28;19919;-40
2022/12/23 02:32:06;;;;;;;;;;;7.90;99.90;;;;;;5116074;28;19923;-40
2022/12/23 02:34:39;;;;;;;;;;;7.90;99.90;;;;;;5107617;28;19912;-41
2022/12/23 02:37:04;;;;;;;;;;;8.00;99.90;;;;;;5099665;28;19912;-42
2022/12/23 02:39:34;;;;;;;;;;;7.90;99.90;;;;;;5095534;28;20436;-41
2022/12/23 02:42:08;;;;;;;;;;;7.90;99.90;;;;;;5108516;28;19912;-40
2022/12/23 02:44:51;;;;;;;;;;;7.90;99.90;;;;;;5099464;28;19916;-40
2022/12/23 02:47:23;;;;;;;;;;;7.90;99.90;;;;;;5096563;28;19912;-42
2022/12/23 02:49:53;;;;;;;;;;;7.90;99.90;;;;;;5103901;28;20363;-39
2022/12/23 02:52:20;;;;;;;;;;;7.90;99.90;;;;;;5096212;28;19916;-40
2022/12/23 02:54:51;;;;;;;;;;;7.90;99.90;;;;;;5101223;28;20366;-42
2022/12/23 02:57:19;;;;;;;;;;;7.90;99.90;;;;;;5098032;28;19908;-40
2022/12/23 02:59:47;;;;;;;;;;;7.90;99.90;;;;;;5103103;28;19912;-41
2022/12/23 03:02:12;;;;;;;;;;;7.90;99.90;;;;;;5116387;28;20380;-40
2022/12/23 03:04:41;;;;;;;;;;;7.90;99.90;;;;;;5115982;28;19924;-41
2022/12/23 03:07:08;;;;;;;;;;;8.00;99.90;;;;;;5115682;28;19985;-40
2022/12/23 03:09:52;;;;;;;;;;;7.90;99.90;;;;;;5115809;28;20371;-39
2022/12/23 03:12:20;;;;;;;;;;;7.90;99.90;;;;;;5115952;28;19912;-41
2022/12/23 03:15:09;;;;;;;;;;;7.90;99.90;;;;;;5097326;28;19908;-40
2022/12/23 03:17:53;;;;;;;;;;;7.90;99.90;;;;;;5084587;28;19912;-41
2022/12/23 03:20:27;;;;;;;;;;;7.90;99.90;;;;;;5095712;28;19912;-40
2022/12/23 03:23:02;;;;;;;;;;;7.90;99.90;;;;;;5095271;28;19912;-41
2022/12/23 03:25:39;;;;;;;;;;;7.90;99.90;;;;;;5095417;28;19920;-41
2022/12/23 03:28:04;;;;;;;;;;;8.00;99.90;;;;;;5094785;28;20389;-41
2022/12/23 03:30:31;;;;;;;;;;;7.90;99.90;;;;;;5094823;28;19920;-44
2022/12/23 03:33:00;;;;;;;;;;;8.00;99.90;;;;;;5108939;28;19919;-40
2022/12/23 03:35:35;;;;;;;;;;;7.90;99.90;;;;;;5114320;28;19911;-40
2022/12/23 03:38:01;;;;;;;;;;;8.00;99.90;;;;;;5095594;28;20358;-40
2022/12/23 03:40:28;;;;;;;;;;;8.00;99.90;;;;;;5095278;28;19912;-40
2022/12/23 03:42:57;;;;;;;;;;;8.00;99.90;;;;;;5098085;28;19915;-42
2022/12/23 03:45:25;;;;;;;;;;;8.00;99.90;;;;;;5095283;28;20394;-41
2022/12/23 03:48:05;;;;;;;;;;;8.00;99.90;;;;;;5094998;28;20259;-41
2022/12/23 03:50:32;;;;;;;;;;;8.00;99.90;;;;;;5094893;28;19916;-41
2022/12/23 03:53:00;;;;;;;;;;;8.00;99.90;;;;;;5115367;28;20173;-39
2022/12/23 03:55:30;;;;;;;;;;;8.00;99.90;;;;;;5114760;28;19947;-41
2022/12/23 03:58:22;;;;;;;;;;;8.00;99.90;;;;;;5114647;28;20385;-41
2022/12/23 04:00:51;;;;;;;;;;;8.00;99.90;;;;;;5062907;28;20332;-40
2022/12/23 04:03:20;;;;;;;;;;;8.00;99.90;;;;;;5094229;28;19916;-39
2022/12/23 04:05:50;;;;;;;;;;;8.00;99.90;;;;;;5098579;28;19920;-40
2022/12/23 04:08:23;;;;;;;;;;;8.00;99.90;;;;;;5094840;28;19908;-40
2022/12/23 04:10:49;;;;;;;;;;;8.00;99.90;;;;;;5113955;28;19915;-41
2022/12/23 04:13:15;;;;;;;;;;;8.00;99.90;;;;;;5115033;28;19992;-41
2022/12/23 04:15:41;;;;;;;;;;;8.00;99.90;;;;;;5077612;28;20004;-40
2022/12/23 04:18:06;;;;;;;;;;;8.00;99.90;;;;;;5093822;28;20444;-40
2022/12/23 04:20:32;;;;;;;;;;;8.00;99.90;;;;;;5110805;28;19912;-41
2022/12/23 04:22:57;;;;;;;;;;;8.00;99.90;;;;;;5094629;28;20413;-41
2022/12/23 04:25:23;;;;;;;;;;;8.00;99.90;;;;;;5093510;28;19972;-43
2022/12/23 04:27:49;;;;;;;;;;;8.00;99.90;;;;;;5097334;28;19912;-41
2022/12/23 04:30:14;;;;;;;;;;;8.00;99.90;;;;;;5112413;28;19975;-39
2022/12/23 04:32:40;;;;;;;;;;;8.00;99.90;;;;;;5113960;28;20289;-40
2022/12/23 04:35:06;;;;;;;;;;;7.90;99.90;;;;;;5109510;28;20434;-41
2022/12/23 04:37:31;;;;;;;;;;;8.00;99.90;;;;;;5110946;28;19928;-40
2022/12/23 04:39:57;;;;;;;;;;;7.90;99.90;;;;;;5110447;28;19911;-40
2022/12/23 04:42:22;;;;;;;;;;;7.90;99.90;;;;;;5109899;28;20002;-43
2022/12/23 04:44:48;;;;;;;;;;;7.90;99.90;;;;;;5111737;28;20385;-40
2022/12/23 04:47:13;;;;;;;;;;;7.90;99.90;;;;;;5112083;28;19914;-41
2022/12/23 04:49:39;;;;;;;;;;;7.90;99.90;;;;;;5111297;28;19916;-41
2022/12/23 04:52:04;;;;;;;;;;;8.00;99.90;;;;;;5110826;28;19912;-41
2022/12/23 04:54:30;;;;;;;;;;;7.90;99.90;;;;;;5110351;28;19911;-40
2022/12/23 04:56:55;;;;;;;;;;;7.90;99.90;;;;;;5112387;28;19961;-40
2022/12/23 04:59:21;;;;;;;;;;;7.90;99.90;;;;;;5110962;28;20018;-40
2022/12/23 05:01:46;;;;;;;;;;;7.90;99.90;;;;;;5112387;28;19934;-40
2022/12/23 05:04:12;;;;;;;;;;;7.90;99.90;;;;;;5110945;28;20014;-43
2022/12/23 05:06:37;;;;;;;;;;;7.90;99.90;;;;;;5111750;28;20356;-41
2022/12/23 05:09:03;;;;;;;;;;;7.90;99.90;;;;;;5111798;28;19912;-41
2022/12/23 05:11:29;;;;;;;;;;;7.80;99.90;;;;;;5111263;28;20370;-41
2022/12/23 05:13:54;;;;;;;;;;;7.90;99.90;;;;;;5110237;28;20266;-41
2022/12/23 05:16:20;;;;;;;;;;;7.80;99.90;;;;;;5109260;28;19916;-43
2022/12/23 05:18:45;;;;;;;;;;;7.80;99.90;;;;;;5110424;28;20646;-41
2022/12/23 05:21:11;;;;;;;;;;;7.80;99.90;;;;;;5110285;28;19920;-41
2022/12/23 05:23:37;;;;;;;;;;;7.80;99.90;;;;;;5109744;28;20263;-43
2022/12/23 05:26:02;;;;;;;;;;;7.70;99.90;;;;;;5111541;28;20381;-42
2022/12/23 05:28:28;;;;;;;;;;;7.80;99.90;;;;;;5108533;28;19912;-42
2022/12/23 05:31:00;;;;;;;;;;;7.70;99.90;;;;;;5107108;28;19928;-40
2022/12/23 05:33:26;;;;;;;;;;;7.70;99.90;;;;;;5111262;28;19916;-39
2022/12/23 05:35:51;;;;;;;;;;;7.80;99.90;;;;;;5112879;28;19908;-41
2022/12/23 05:38:17;;;;;;;;;;;7.80;99.90;;;;;;5113636;28;19915;-40
2022/12/23 05:40:42;;;;;;;;;;;7.70;99.90;;;;;;5093705;28;19912;-41
2022/12/23 05:43:08;;;;;;;;;;;7.80;99.90;;;;;;5092464;28;19908;-41
2022/12/23 05:45:34;;;;;;;;;;;7.80;99.90;;;;;;5109126;28;19919;-42
2022/12/23 05:47:59;;;;;;;;;;;7.70;99.90;;;;;;5093119;28;19908;-41
2022/12/23 05:50:25;;;;;;;;;;;7.80;99.90;;;;;;5092213;28;20349;-41
2022/12/23 05:52:50;;;;;;;;;;;7.70;99.90;;;;;;5101783;28;19912;-41
2022/12/23 05:55:16;;;;;;;;;;;7.70;99.90;;;;;;5111807;28;20424;-43
2022/12/23 05:57:41;;;;;;;;;;;7.80;99.90;;;;;;5112523;28;19908;-40
2022/12/23 06:00:07;;;;;;;;;;;7.70;99.90;;;;;;5102063;28;19999;-40
2022/12/23 06:02:32;;;;;;;;;;;7.70;99.90;;;;;;5092663;28;19912;-39
2022/12/23 06:04:58;;;;;;;;;;;7.60;99.90;;;;;;5092191;28;20291;-42
2022/12/23 06:07:23;;;;;;;;;;;7.60;99.90;;;;;;5092739;28;20037;-41
2022/12/23 06:09:49;;;;;;;;;;;7.60;99.90;;;;;;5103405;28;20362;-41
2022/12/23 06:12:14;;;;;;;;;;;7.50;99.90;;;;;;5112794;28;19964;-42
2022/12/23 06:14:40;;;;;;;;;;;7.50;99.90;;;;;;5112672;28;19916;-41
2022/12/23 06:17:05;;;;;;;;;;;7.50;99.90;;;;;;5111741;28;19919;-40
2022/12/23 06:19:31;;;;;;;;;;;7.50;99.90;;;;;;5112732;28;20348;-41
2022/12/23 06:21:56;;;;;;;;;;;7.40;99.90;;;;;;5113111;28;19907;-40
2022/12/23 06:24:22;;;;;;;;;;;7.40;99.90;;;;;;5110697;28;20374;-40
2022/12/23 06:26:47;;;;;;;;;;;7.50;99.90;;;;;;5092410;28;19919;-41
2022/12/23 06:29:13;;;;;;;;;;;7.50;99.90;;;;;;5093473;28;19912;-40
2022/12/23 06:31:38;;;;;;;;;;;7.40;99.90;;;;;;5092535;28;19924;-40
2022/12/23 06:34:04;;;;;;;;;;;7.40;99.90;;;;;;5098511;28;19999;-41
2022/12/23 06:36:29;;;;;;;;;;;7.40;99.90;;;;;;5096204;28;20211;-42
2022/12/23 06:38:55;;;;;;;;;;;7.40;99.90;;;;;;5107805;28;19924;-41
2022/12/23 06:41:20;;;;;;;;;;;7.40;99.90;;;;;;5109551;28;20029;-43
2022/12/23 06:43:45;;;;;;;;;;;7.40;99.90;;;;;;5111979;28;19912;-40
2022/12/23 06:46:11;;;;;;;;;;;7.40;99.90;;;;;;5110234;28;19922;-41
2022/12/23 06:48:36;;;;;;;;;;;7.40;99.90;;;;;;5112674;28;20366;-41
2022/12/23 06:51:02;;;;;;;;;;;7.50;99.90;;;;;;5108051;28;19935;-40
2022/12/23 06:53:27;;;;;;;;;;;7.40;99.90;;;;;;5111440;28;20071;-41
2022/12/23 06:56:02;;;;;;;;;;;7.40;99.90;;;;;;5103355;28;19912;-40
2022/12/23 06:58:28;;;;;;;;;;;7.40;99.90;;;;;;5102416;28;19944;-41
2022/12/23 07:00:54;;;;;;;;;;;7.40;99.90;;;;;;5111419;28;20012;-41
2022/12/23 07:03:19;;;;;;;;;;;7.40;99.90;;;;;;5112657;28;19915;-42
2022/12/23 07:05:48;;;;;;;;;;;7.40;99.90;;;;;;5101432;28;19920;-40
2022/12/23 07:08:14;;;;;;;;;;;7.40;99.90;;;;;;5094930;28;20410;-41
2022/12/23 07:10:40;;;;;;;;;;;7.40;99.90;;;;;;5095790;28;19975;-40
2022/12/23 07:13:05;;;;;;;;;;;7.40;99.90;;;;;;5104978;28;19922;-41
2022/12/23 07:15:31;;;;;;;;;;;7.40;99.90;;;;;;5115836;28;20000;-40
2022/12/23 07:17:56;;;;;;;;;;;7.40;99.90;;;;;;5115934;28;19996;-42
2022/12/23 07:20:21;;;;;;;;;;;7.40;99.90;;;;;;5114961;28;19911;-41
2022/12/23 07:22:49;;;;;;;;;;;7.40;99.90;;;;;;5115755;28;20266;-40
2022/12/23 07:25:14;;;;;;;;;;;7.40;99.90;;;;;;5114150;28;19927;-41
2022/12/23 07:27:40;;;;;;;;;;;7.40;99.90;;;;;;5110193;28;20324;-42
2022/12/23 07:30:06;;;;;;;;;;;7.40;99.90;;;;;;5110597;27;19912;-41
2022/12/23 07:32:32;;;;;;;;;;;7.30;99.90;;;;;;5112457;27;19911;-40
2022/12/23 07:34:57;;;;;;;;;;;7.30;99.90;;;;;;5116026;27;20437;-42
2022/12/23 07:37:22;;;;;;;;;;;7.30;99.90;;;;;;5119146;27;20378;-41
2022/12/23 07:39:48;;;;;;;;;;;7.30;99.90;;;;;;5136244;27;19933;-41
2022/12/23 07:42:13;;;;;;;;;;;7.30;99.90;;;;;;5135404;27;19907;-40
2022/12/23 07:44:39;;;;;;;;;;;7.30;99.90;;;;;;5114287;27;19974;-40
2022/12/23 07:47:04;;;;;;;;;;;7.30;99.90;;;;;;5135779;27;20362;-39
2022/12/23 07:49:30;;;;;;;;;;;7.30;99.90;;;;;;5128635;27;19915;-43
2022/12/23 07:51:56;;;;;;;;;;;7.40;99.90;;;;;;5115613;28;19908;-42
2022/12/23 07:54:21;;;;;;;;;;;7.30;99.90;;;;;;5115247;28;19908;-40
2022/12/23 07:56:47;;;;;;;;;;;7.30;99.90;;;;;;5114828;28;19961;-41
2022/12/23 07:59:12;;;;;;;;;;;7.30;99.90;;;;;;5114583;28;19960;-41
2022/12/23 08:01:38;;;;;;;;;;;7.30;99.90;;;;;;5114402;28;19912;-40
2022/12/23 08:04:03;;;;;;;;;;;7.30;99.90;;;;;;5109699;27;20024;-41
2022/12/23 08:06:29;;;;;;;;;;;7.30;99.90;;;;;;5134759;27;20361;-41
2022/12/23 08:08:54;;;;;;;;;;;7.30;99.90;;;;;;5117533;27;19913;-40
2022/12/23 08:11:20;;;;;;;;;;;7.30;99.90;;;;;;5103339;28;19919;-42
2022/12/23 08:13:47;;;;;;;;;;;7.40;99.90;;;;;;5132389;27;19911;-40
2022/12/23 08:16:12;;;;;;;;;;;7.40;99.90;;;;;;5129842;27;20002;-44
2022/12/23 08:18:38;;;;;;;;;;;7.40;99.90;;;;;;5111090;28;20350;-40
2022/12/23 08:21:10;;;;;;;;;;;7.40;99.90;;;;;;5112560;28;20263;-45
2022/12/23 08:23:36;;;;;;;;;;;7.40;99.90;;;;;;5111473;28;20298;-41
2022/12/23 08:26:08;;;;;;;;;;;7.40;99.90;;;;;;5112726;28;19927;-39
2022/12/23 08:28:35;;;;;;;;;;;7.40;99.90;;;;;;5113225;27;19907;-43
2022/12/23 08:31:03;;;;;;;;;;;7.40;99.90;;;;;;5111508;28;19920;-41
2022/12/23 08:33:29;;;;;;;;;;;7.40;99.90;;;;;;5112341;28;19934;-40
2022/12/23 08:35:54;;;;;;;;;;;7.40;99.90;;;;;;5109799;28;20354;-39
2022/12/23 08:38:20;;;;;;;;;;;7.40;99.90;;;;;;5111223;28;19908;-43
2022/12/23 08:40:45;;;;;;;;;;;7.40;99.90;;;;;;5112153;28;20316;-39
2022/12/23 08:43:11;;;;;;;;;;;7.40;99.90;;;;;;5112005;28;19908;-40
2022/12/23 08:45:37;;;;;;;;;;;7.50;99.90;;;;;;5110590;28;20428;-44
2022/12/23 08:48:03;;;;;;;;;;;7.40;99.90;;;;;;5112155;28;20373;-42
2022/12/23 08:50:29;;;;;;;;;;;7.50;99.90;;;;;;5109713;28;19919;-40
2022/12/23 08:52:54;;;;;;;;;;;7.50;99.90;;;;;;5111978;27;20365;-41
2022/12/23 08:55:20;;;;;;;;;;;7.40;99.90;;;;;;5110692;28;19907;-42
2022/12/23 08:57:45;;;;;;;;;;;7.40;99.90;;;;;;5108982;28;20278;-41
2022/12/23 09:00:11;;;;;;;;;;;7.40;99.90;;;;;;5110920;28;19908;-40
2022/12/23 09:02:36;;;;;;;;;;;7.50;99.90;;;;;;5111462;28;19951;-42
2022/12/23 09:05:02;;;;;;;;;;;7.50;99.90;;;;;;5113669;27;19915;-41
2022/12/23 09:07:27;;;;;;;;;;;7.50;99.90;;;;;;5111006;28;19907;-42
2022/12/23 09:09:52;;;;;;;;;;;7.40;99.90;;;;;;5111708;28;19915;-41
2022/12/23 09:12:18;;;;;;;;;;;7.50;99.90;;;;;;5106146;28;19955;-43
2022/12/23 09:14:46;;;;;;;;;;;7.50;99.90;;;;;;5110673;28;19907;-41
2022/12/23 09:17:12;;;;;;;;;;;7.60;99.90;;;;;;5112230;27;19920;-39
2022/12/23 09:19:37;;;;;;;;;;;7.60;99.90;;;;;;5110371;28;19908;-41
2022/12/23 09:22:03;;;;;;;;;;;7.60;99.90;;;;;;5107972;28;20388;-41
2022/12/23 09:24:28;;;;;;;;;;;7.60;99.90;;;;;;5109479;28;19927;-42
2022/12/23 09:26:54;;;;;;;;;;;7.60;99.90;;;;;;5104561;28;19916;-41
2022/12/23 09:29:19;;;;;;;;;;;7.60;99.90;;;;;;5108704;28;19911;-39
2022/12/23 09:31:44;;;;;;;;;;;7.60;99.90;;;;;;5105595;28;19938;-41
2022/12/23 09:34:10;;;;;;;;;;;7.70;99.90;;;;;;5104479;28;19912;-42
2022/12/23 09:36:36;;;;;;;;;;;7.70;99.90;;;;;;5108382;28;19912;-41
2022/12/23 09:39:01;;;;;;;;;;;7.70;99.90;;;;;;5112185;27;19908;-39
2022/12/23 09:41:45;;;;;;;;;;;7.80;99.90;;;;;;5106904;28;19912;-41
2022/12/23 09:44:17;;;;;;;;;;;7.80;99.90;;;;;;5107424;28;19916;-42
2022/12/23 09:46:48;;;;;;;;;;;7.80;99.90;;;;;;5112219;28;20354;-42
2022/12/23 09:49:17;;;;;;;;;;;7.90;99.90;;;;;;5099935;28;19908;-41
2022/12/23 09:51:43;;;;;;;;;;;7.90;99.90;;;;;;5096445;28;20425;-41
2022/12/23 09:54:14;;;;;;;;;;;7.90;99.90;;;;;;5112512;28;19946;-42
2022/12/23 09:56:54;;;;;;;;;;;7.90;99.90;;;;;;5109561;28;19947;-42
2022/12/23 09:59:26;;;;;;;;;;;8.00;99.90;;;;;;5106396;27;19912;-40
2022/12/23 10:01:54;;;;;;;;;;;8.00;99.90;;;;;;5098063;28;19912;-42
2022/12/23 10:04:28;;;;;;;;;;;8.00;99.90;;;;;;5112521;28;19915;-41
2022/12/23 10:07:03;;;;;;;;;;;8.10;99.90;;;;;;5103540;28;19911;-40
2022/12/23 10:09:33;;;;;;;;;;;8.10;99.90;;;;;;5093954;28;20301;-40
2022/12/23 10:11:58;;;;;;;;;;;8.10;99.90;;;;;;5092189;28;19969;-39
2022/12/23 10:14:28;;;;;;;;;;;8.10;99.90;;;;;;5091947;28;19912;-43
2022/12/23 10:16:58;;;;;;;;;;;8.20;99.90;;;;;;5091352;28;19912;-42
2022/12/23 10:19:24;;;;;;;;;;;8.20;99.90;;;;;;5091862;28;19908;-43
2022/12/23 10:21:52;;;;;;;;;;;8.20;99.90;;;;;;5091624;28;20003;-41
2022/12/23 10:24:21;;;;;;;;;;;8.20;99.90;;;;;;5100446;28;19973;-41
2022/12/23 10:26:50;;;;;;;;;;;8.30;99.90;;;;;;5116793;28;19911;-40
2022/12/23 10:29:18;;;;;;;;;;;8.30;99.90;;;;;;5131895;28;20415;-40
2022/12/23 10:32:04;;;;;;;;;;;8.30;99.90;;;;;;5089995;28;19974;-41
2022/12/23 10:34:29;;;;;;;;;;;8.30;99.90;;;;;;5090790;28;19935;-40
2022/12/23 10:36:55;;;;;;;;;;;8.40;99.90;;;;;;5090934;28;20367;-41
2022/12/23 10:39:27;;;;;;;;;;;8.40;99.90;;;;;;5099222;28;20278;-42
2022/12/23 10:42:05;;;;;;;;;;;8.40;99.90;;;;;;5113288;28;19934;-42
2022/12/23 10:44:50;;;;;;;;;;;8.40;99.90;;;;;;5107833;28;20014;-41
2022/12/23 10:47:30;;;;;;;;;;;8.40;99.90;;;;;;5113460;27;19912;-41
2022/12/23 10:50:14;;;;;;;;;;;8.40;99.90;;;;;;5112985;28;19908;-41
2022/12/23 10:52:41;;;;;;;;;;;8.40;99.90;;;;;;5107468;28;19967;-40
2022/12/23 10:55:21;;;;;;;;;;;8.40;99.90;;;;;;5110946;28;19912;-41
2022/12/23 10:57:48;;;;;;;;;;;8.50;99.90;;;;;;5108164;28;19982;-41
2022/12/23 11:00:29;;;;;;;;;;;8.50;99.90;;;;;;5103520;28;19991;-42
2022/12/23 11:03:13;;;;;;;;;;;8.60;99.90;;;;;;5111665;28;19912;-41
2022/12/23 11:05:39;;;;;;;;;;;8.60;99.90;;;;;;5114231;28;19980;-40
2022/12/23 11:08:04;;;;;;;;;;;8.60;99.90;;;;;;5115921;28;19912;-41
2022/12/23 11:10:33;;;;;;;;;;;8.60;99.90;;;;;;5115475;28;19961;-41
2022/12/23 11:12:59;;;;;;;;;;;8.60;99.90;;;;;;5115026;28;19915;-41
2022/12/23 11:15:26;;;;;;;;;;;8.70;99.90;;;;;;5115552;28;19912;-41
2022/12/23 11:17:59;;;;;;;;;;;8.60;99.90;;;;;;5099833;28;19908;-40
2022/12/23 11:20:25;;;;;;;;;;;8.60;99.90;;;;;;5094190;28;20010;-40
2022/12/23 11:22:52;;;;;;;;;;;8.60;99.90;;;;;;5094654;28;19995;-40
2022/12/23 11:25:23;;;;;;;;;;;8.60;99.90;;;;;;5095075;28;19966;-41
2022/12/23 11:27:51;;;;;;;;;;;8.60;99.90;;;;;;5093965;28;19908;-40
2022/12/23 11:30:17;;;;;;;;;;;8.60;99.90;;;;;;5094834;28;19919;-40
2022/12/23 11:32:43;;;;;;;;;;;8.70;99.90;;;;;;5094145;28;19915;-41
2022/12/23 11:35:38;;;;;;;;;;;8.60;99.90;;;;;;5094004;28;19960;-39
2022/12/23 11:38:11;;;;;;;;;;;8.70;99.90;;;;;;5081215;28;20260;-41
2022/12/23 11:40:37;;;;;;;;;;;8.70;99.90;;;;;;5099303;28;19908;-39
2022/12/23 11:43:03;;;;;;;;;;;8.70;99.90;;;;;;5115303;28;20294;-39
2022/12/23 11:45:32;;;;;;;;;;;8.70;99.90;;;;;;5100586;28;19920;-40
2022/12/23 11:47:58;;;;;;;;;;;8.70;99.90;;;;;;5093922;28;19991;-41
2022/12/23 11:50:26;;;;;;;;;;;8.70;99.90;;;;;;5095647;28;19916;-41
2022/12/23 11:53:00;;;;;;;;;;;8.80;99.90;;;;;;5096584;28;19919;-39
2022/12/23 11:55:36;;;;;;;;;;;8.80;99.90;;;;;;5116863;27;19918;-40
2022/12/23 11:58:02;;;;;;;;;;;8.80;99.90;;;;;;5094553;28;19908;-39
2022/12/23 12:00:31;;;;;;;;;;;8.80;99.90;;;;;;5109363;27;19911;-41
2022/12/23 12:03:01;;;;;;;;;;;8.80;99.90;;;;;;5102703;28;19908;-40
2022/12/23 12:05:35;;;;;;;;;;;8.80;99.90;;;;;;5094119;28;19917;-45
2022/12/23 12:08:10;;;;;;;;;;;8.80;99.90;;;;;;5094190;28;19908;-40
2022/12/23 12:10:36;;;;;;;;;;;8.90;99.90;;;;;;5093199;28;20383;-40
2022/12/23 12:13:06;;;;;;;;;;;8.80;99.90;;;;;;5094129;28;19915;-39
2022/12/23 12:15:51;;;;;;;;;;;8.90;99.90;;;;;;5092983;28;19915;-39
2022/12/23 12:18:18;;;;;;;;;;;8.90;99.90;;;;;;5094089;28;20303;-40
2022/12/23 12:20:45;;;;;;;;;;;8.90;99.90;;;;;;5085186;28;20021;-39
2022/12/23 12:23:10;;;;;;;;;;;8.90;99.90;;;;;;5094395;28;19912;-40
2022/12/23 12:25:49;;;;;;;;;;;8.90;99.90;;;;;;5113821;28;20067;-39
2022/12/23 12:28:37;;;;;;;;;;;8.90;99.90;;;;;;5114329;28;19915;-40
2022/12/23 12:31:22;;;;;;;;;;;8.90;99.90;;;;;;5101797;28;19920;-40
2022/12/23 12:34:01;;;;;;;;;;;8.90;99.90;;;;;;5100964;28;19912;-41
2022/12/23 12:36:49;;;;;;;;;;;8.90;99.90;;;;;;5093097;28;19908;-40
2022/12/23 12:39:50;;;;;;;;;;;8.90;99.90;;;;;;5125102;27;19919;-41
2022/12/23 12:42:20;;;;;;;;;;;8.80;99.90;;;;;;5068547;28;19912;-41
2022/12/23 12:44:54;;;;;;;;;;;8.90;99.90;;;;;;5088966;28;20403;-41
2022/12/23 12:47:25;;;;;;;;;;;8.90;99.90;;;;;;5110996;28;20374;-42
2022/12/23 12:49:55;;;;;;;;;;;8.90;99.90;;;;;;5111832;28;20325;-40
2022/12/23 12:52:23;;;;;;;;;;;8.90;99.90;;;;;;5112096;28;20416;-38
2022/12/23 12:54:51;;;;;;;;;;;8.80;99.90;;;;;;5112800;28;19912;-45
2022/12/23 12:57:18;;;;;;;;;;;8.90;99.90;;;;;;5113961;27;20350;-40
2022/12/23 12:59:46;;;;;;;;;;;8.90;99.90;;;;;;5111759;28;19999;-41
2022/12/23 13:02:29;;;;;;;;;;;8.80;99.90;;;;;;5112868;28;20330;-41
2022/12/23 13:05:01;;;;;;;;;;;8.80;99.90;;;;;;5112176;28;19919;-39
2022/12/23 13:07:29;;;;;;;;;;;8.80;99.90;;;;;;5112967;28;19927;-41
2022/12/23 13:09:57;;;;;;;;;;;8.80;99.90;;;;;;5112693;28;19998;-40
2022/12/23 13:12:32;;;;;;;;;;;8.80;99.90;;;;;;5111931;28;19954;-40
2022/12/23 13:15:03;;;;;;;;;;;8.70;99.90;;;;;;5092706;28;19994;-41
2022/12/23 13:17:44;;;;;;;;;;;8.70;99.90;;;;;;5092161;28;19995;-41
2022/12/23 13:20:14;;;;;;;;;;;8.70;99.90;;;;;;5091959;28;19919;-39
2022/12/23 13:22:41;;;;;;;;;;;8.60;99.90;;;;;;5092436;28;19943;-40
2022/12/23 13:25:21;;;;;;;;;;;8.70;99.90;;;;;;5093368;28;19916;-41
2022/12/23 13:27:54;;;;;;;;;;;8.60;99.90;;;;;;5091519;28;19912;-42
2022/12/23 13:30:22;;;;;;;;;;;8.60;99.90;;;;;;5092538;28;19989;-39
2022/12/23 13:33:06;;;;;;;;;;;8.60;99.90;;;;;;5091656;28;20006;-40
2022/12/23 13:35:55;;;;;;;;;;;8.50;99.90;;;;;;5092863;28;20225;-42
2022/12/23 13:38:24;;;;;;;;;;;8.50;99.90;;;;;;5112768;28;20362;-39
2022/12/23 13:40:55;;;;;;;;;;;8.50;99.90;;;;;;5107868;28;20378;-40
2022/12/23 13:43:22;;;;;;;;;;;8.50;99.90;;;;;;5112955;28;19912;-40
2022/12/23 13:45:49;;;;;;;;;;;8.50;99.90;;;;;;5112169;28;19959;-39
2022/12/23 13:48:17;;;;;;;;;;;8.50;99.90;;;;;;5096140;28;19961;-39
2022/12/23 13:50:49;;;;;;;;;;;8.50;99.90;;;;;;5092905;28;19920;-39
2022/12/23 13:53:14;;;;;;;;;;;8.40;99.90;;;;;;5117648;27;20285;-43
2022/12/23 13:55:50;;;;;;;;;;;8.40;99.90;;;;;;5126798;27;20011;-40
2022/12/23 13:58:17;;;;;;;;;;;8.40;99.90;;;;;;5099167;28;19923;-39
2022/12/23 14:00:43;;;;;;;;;;;8.40;99.90;;;;;;5100577;28;19912;-41
2022/12/23 14:03:11;;;;;;;;;;;8.30;99.90;;;;;;5096415;28;19914;-39
2022/12/23 14:05:44;;;;;;;;;;;8.30;99.90;;;;;;5113458;28;20018;-41
2022/12/23 14:08:19;;;;;;;;;;;8.40;99.90;;;;;;5100180;28;20278;-40
2022/12/23 14:10:59;;;;;;;;;;;8.40;99.90;;;;;;5091766;28;19916;-41
2022/12/23 14:13:30;;;;;;;;;;;8.30;99.90;;;;;;5092146;28;19908;-40
2022/12/23 14:15:58;;;;;;;;;;;8.30;99.90;;;;;;5092382;28;19995;-40
2022/12/23 14:18:27;;;;;;;;;;;8.30;99.90;;;;;;5095936;28;19908;-40
2022/12/23 14:21:01;;;;;;;;;;;8.30;99.90;;;;;;5097753;28;19911;-42
2022/12/23 14:23:50;;;;;;;;;;;8.30;99.90;;;;;;5108409;27;19920;-49
2022/12/23 14:26:39;;;;;;;;;;;8.30;99.90;;;;;;5108118;28;19923;-43
2022/12/23 14:29:11;;;;;;;;;;;8.30;99.90;;;;;;5103120;28;19911;-40
2022/12/23 14:31:40;;;;;;;;;;;8.30;99.90;;;;;;5115814;28;19951;-39
2022/12/23 14:34:18;;;;;;;;;;;8.30;99.90;;;;;;5116400;28;20286;-41
2022/12/23 14:37:03;;;;;;;;;;;8.30;99.90;;;;;;5115392;28;19912;-40
2022/12/23 14:39:32;;;;;;;;;;;8.30;99.90;;;;;;5116045;28;19908;-39
2022/12/23 14:41:57;;;;;;;;;;;8.30;99.90;;;;;;5116230;28;19943;-39
2022/12/23 14:44:23;;;;;;;;;;;8.20;99.90;;;;;;5115594;28;19961;-40
2022/12/23 14:46:48;;;;;;;;;;;8.20;99.90;;;;;;5115125;28;19961;-41
2022/12/23 14:49:21;;;;;;;;;;;8.30;99.90;;;;;;5116323;28;19937;-40
2022/12/23 14:51:50;;;;;;;;;;;8.20;99.90;;;;;;5115044;28;19980;-39
2022/12/23 14:54:15;;;;;;;;;;;8.20;99.90;;;;;;5108344;28;19908;-39
2022/12/23 14:56:55;;;;;;;;;;;8.20;99.90;;;;;;5095327;28;20003;-40
2022/12/23 14:59:45;;;;;;;;;;;8.20;99.90;;;;;;5094893;28;19948;-39
2022/12/23 15:02:14;;;;;;;;;;;8.20;99.90;;;;;;5085300;28;19912;-40
2022/12/23 15:04:53;;;;;;;;;;;8.20;99.90;;;;;;5094337;28;19920;-39
2022/12/23 15:07:18;;;;;;;;;;;8.20;99.90;;;;;;5100604;28;19908;-38